createdAt,value
2023-02-04T00:00:01.138Z,3.26
2023-02-04T00:02:27.903Z,3.22
2023-02-04T00:04:54.684Z,3.27
2023-02-04T00:07:21.459Z,3.17
2023-02-04T00:09:49.986Z,3.03
2023-02-04T00:12:17.021Z,3.13
2023-02-04T00:14:44.456Z,3.02
2023-02-04T00:17:13.115Z,3.02
2023-02-04T00:19:40.563Z,2.88
2023-02-04T00:22:08.051Z,2.81
2023-02-04T00:24:38.515Z,3.23
2023-02-04T00:27:06.440Z,3.34
2023-02-04T00:29:33.125Z,3.12
2023-02-04T00:32:00.235Z,3.32
2023-02-04T00:34:27.016Z,3.34
2023-02-04T00:36:53.688Z,3.37
2023-02-04T00:39:20.462Z,3.49
2023-02-04T00:41:47.136Z,3.59
2023-02-04T00:44:16.895Z,3.56
2023-02-04T00:46:43.624Z,3.54
2023-02-04T00:49:11.247Z,3.57
2023-02-04T00:51:39.732Z,3.81
2023-02-04T00:54:07.344Z,3.73
2023-02-04T00:56:34.547Z,3.62
2023-02-04T00:59:01.404Z,3.56
2023-02-04T01:01:28.186Z,3.46
2023-02-04T01:03:55.134Z,3.39
2023-02-04T01:06:21.881Z,3.39
2023-02-04T01:08:48.665Z,3.34
2023-02-04T01:11:15.425Z,3.30
2023-02-04T01:13:42.330Z,3.17
2023-02-04T01:16:09.323Z,3.20
2023-02-04T01:18:36.179Z,3.26
2023-02-04T01:21:02.929Z,3.28
2023-02-04T01:23:29.609Z,3.21
2023-02-04T01:25:57.187Z,3.21
2023-02-04T01:28:23.896Z,3.07
2023-02-04T01:34:57.161Z,2.85
2023-02-04T01:37:23.936Z,2.74
2023-02-04T01:39:50.567Z,2.75
2023-02-04T01:42:17.285Z,2.61
2023-02-04T01:44:44.107Z,2.52
2023-02-04T01:47:10.832Z,2.46
2023-02-04T01:49:37.703Z,2.45
2023-02-04T01:52:04.839Z,2.45
2023-02-04T01:54:32.346Z,2.42
2023-02-04T01:56:59.252Z,2.35
2023-02-04T01:59:27.061Z,2.38
2023-02-04T02:01:54.419Z,2.42
2023-02-04T02:04:33.612Z,2.38
2023-02-04T02:07:03.865Z,2.35
2023-02-04T02:09:32.563Z,2.35
2023-02-04T02:12:01.617Z,2.35
2023-02-04T02:14:28.478Z,2.36
2023-02-04T02:16:55.157Z,2.36
2023-02-04T02:19:28.911Z,2.36
2023-02-04T02:22:03.624Z,2.35
2023-02-04T02:24:31.652Z,2.37
2023-02-04T02:27:01.176Z,2.30
2023-02-04T02:29:28.343Z,2.29
2023-02-04T02:32:00.391Z,2.27
2023-02-04T02:34:28.898Z,2.28
2023-02-04T02:36:55.985Z,2.26
2023-02-04T02:39:22.973Z,2.29
2023-02-04T02:41:49.713Z,2.27
2023-02-04T02:44:18.090Z,2.26
2023-02-04T02:46:45.293Z,2.28
2023-02-04T02:49:18.138Z,2.30
2023-02-04T02:51:45.920Z,2.25
2023-02-04T02:54:32.017Z,2.19
2023-02-04T02:56:59.432Z,2.18
2023-02-04T02:59:27.790Z,2.22
2023-02-04T03:01:59.500Z,2.19
2023-02-04T03:04:28.751Z,2.18
2023-02-04T03:06:56.248Z,2.18
2023-02-04T03:09:25.920Z,2.20
2023-02-04T03:11:52.906Z,2.21
2023-02-04T03:14:20.152Z,2.17
2023-02-04T03:16:48.240Z,2.17
2023-02-04T03:19:15.213Z,2.18
2023-02-04T03:21:42.513Z,2.21
2023-02-04T03:24:09.724Z,2.31
2023-02-04T03:26:36.624Z,2.23
2023-02-04T03:29:06.130Z,2.19
2023-02-04T03:31:32.919Z,2.17
2023-02-04T03:33:59.622Z,2.15
2023-02-04T03:36:26.273Z,2.16
2023-02-04T03:38:54.298Z,2.19
2023-02-04T03:41:21.860Z,2.14
2023-02-04T03:43:48.496Z,2.15
2023-02-04T03:46:15.230Z,2.14
2023-02-04T03:48:41.854Z,2.19
2023-02-04T03:51:08.545Z,2.32
2023-02-04T03:53:35.179Z,2.25
2023-02-04T03:56:01.790Z,2.36
2023-02-04T03:58:28.472Z,2.73
2023-02-04T04:00:55.095Z,2.57
2023-02-04T04:03:21.744Z,2.51
2023-02-04T04:05:48.574Z,2.53
2023-02-04T04:08:15.222Z,2.54
2023-02-04T04:10:42.076Z,2.67
2023-02-04T04:13:08.780Z,2.57
2023-02-04T04:15:35.414Z,2.57
2023-02-04T04:18:02.900Z,2.52
2023-02-04T04:20:29.709Z,2.53
2023-02-04T04:22:56.573Z,2.50
2023-02-04T04:25:23.247Z,2.51
2023-02-04T04:27:49.900Z,2.53
2023-02-04T04:30:16.945Z,2.55
2023-02-04T04:32:43.554Z,2.49
2023-02-04T04:35:10.193Z,2.53
2023-02-04T04:37:36.807Z,2.56
2023-02-04T04:40:03.808Z,2.57
2023-02-04T04:42:30.430Z,2.53
2023-02-04T04:44:57.200Z,2.44
2023-02-04T04:47:23.824Z,2.36
2023-02-04T04:49:50.502Z,2.35
2023-02-04T04:52:17.107Z,2.33
2023-02-04T04:54:43.738Z,2.32
2023-02-04T04:57:10.427Z,2.24
2023-02-04T04:59:37.070Z,2.28
2023-02-04T05:02:03.756Z,2.31
2023-02-04T05:04:30.456Z,2.34
2023-02-04T05:06:57.173Z,2.26
2023-02-04T05:09:23.891Z,2.33
2023-02-04T05:11:50.651Z,2.31
2023-02-04T05:14:17.324Z,2.26
2023-02-04T05:16:44.036Z,2.22
2023-02-04T05:19:10.805Z,2.26
2023-02-04T05:21:37.492Z,2.30
2023-02-04T05:24:06.501Z,2.26
2023-02-04T05:26:33.550Z,2.33
2023-02-04T05:29:00.645Z,2.31
2023-02-04T05:31:27.690Z,2.37
2023-02-04T05:33:54.702Z,2.35
2023-02-04T05:36:21.754Z,2.23
2023-02-04T05:38:48.376Z,2.34
2023-02-04T05:41:15.069Z,2.22
2023-02-04T05:43:41.818Z,2.14
2023-02-04T05:46:08.615Z,2.10
2023-02-04T05:48:35.373Z,2.08
2023-02-04T05:51:02.040Z,2.06
2023-02-04T05:53:28.699Z,2.00
2023-02-04T05:55:55.350Z,1.95
2023-02-04T05:58:22.065Z,2.04
2023-02-04T06:00:48.757Z,2.00
2023-02-04T06:03:15.621Z,1.94
2023-02-04T06:05:44.345Z,2.00
2023-02-04T06:08:11.214Z,1.91
2023-02-04T06:10:37.882Z,1.88
2023-02-04T06:13:04.602Z,1.87
2023-02-04T06:15:31.236Z,1.85
2023-02-04T06:17:58.656Z,1.88
2023-02-04T06:20:25.330Z,1.88
2023-02-04T06:22:52.052Z,1.89
2023-02-04T06:25:19.294Z,1.85
2023-02-04T06:27:46.066Z,1.84
2023-02-04T06:30:13.630Z,1.85
2023-02-04T06:32:40.285Z,1.88
2023-02-04T06:35:07.583Z,1.91
2023-02-04T06:37:34.461Z,1.98
2023-02-04T06:40:01.234Z,1.91
2023-02-04T06:42:27.884Z,1.79
2023-02-04T06:44:54.586Z,1.76
2023-02-04T06:49:57.191Z,1.77
2023-02-04T06:52:23.831Z,1.73
2023-02-04T06:54:50.582Z,1.68
2023-02-04T06:57:17.286Z,1.70
2023-02-04T06:59:44.044Z,1.66
2023-02-04T07:02:12.445Z,1.74
2023-02-04T07:04:39.257Z,1.68
2023-02-04T07:07:05.982Z,1.76
2023-02-04T07:09:32.764Z,1.83
2023-02-04T07:11:59.401Z,1.69
2023-02-04T07:14:26.001Z,1.74
2023-02-04T07:16:52.633Z,1.69
2023-02-04T07:19:21.135Z,1.48
2023-02-04T07:21:48.142Z,1.39
2023-02-04T07:24:14.793Z,1.20
2023-02-04T07:26:41.575Z,1.20
2023-02-04T07:29:12.227Z,1.27
2023-02-04T07:31:41.699Z,1.32
2023-02-04T07:34:08.471Z,1.04
2023-02-04T07:36:35.177Z,1.05
2023-02-04T07:40:49.071Z,1.02
2023-02-04T07:43:15.886Z,1.03
2023-02-04T07:45:42.520Z,1.10
2023-02-04T07:48:10.787Z,1.09
2023-02-04T07:50:37.642Z,1.13
2023-02-04T07:53:04.422Z,1.28
2023-02-04T07:55:31.185Z,1.62
2023-02-04T07:57:58.036Z,1.80
2023-02-04T08:00:24.734Z,1.94
2023-02-04T08:02:51.814Z,2.11
2023-02-04T08:05:18.627Z,2.33
2023-02-04T08:07:45.582Z,2.53
2023-02-04T08:10:12.584Z,2.76
2023-02-04T08:12:39.487Z,3.09
2023-02-04T08:15:09.608Z,3.04
2023-02-04T08:20:11.552Z,2.73
2023-02-04T08:22:38.236Z,2.62
2023-02-04T08:25:08.424Z,2.75
2023-02-04T08:27:35.100Z,2.94
2023-02-04T08:32:00.864Z,2.81
2023-02-04T08:34:27.589Z,2.79
2023-02-04T08:36:54.220Z,2.71
2023-02-04T08:39:20.909Z,2.79
2023-02-04T08:41:49.258Z,2.83
2023-02-04T08:44:16.013Z,2.82
2023-02-04T08:46:42.793Z,2.86
2023-02-04T08:49:09.530Z,2.95
2023-02-04T08:51:36.190Z,3.01
2023-02-04T08:54:02.845Z,2.92
2023-02-04T08:56:29.586Z,2.92
2023-02-04T08:58:56.486Z,2.93
2023-02-04T09:01:23.228Z,2.97
2023-02-04T09:03:49.959Z,3.02
2023-02-04T09:06:16.638Z,2.95
2023-02-04T09:08:43.331Z,2.93
2023-02-04T09:11:12.383Z,3.00
2023-02-04T09:13:39.597Z,2.99
2023-02-04T09:16:06.604Z,2.97
2023-02-04T09:18:33.521Z,2.99
2023-02-04T09:21:00.368Z,3.07
2023-02-04T09:23:27.155Z,3.10
2023-02-04T09:25:53.881Z,3.18
2023-02-04T09:28:20.680Z,3.19
2023-02-04T09:33:25.413Z,3.33
2023-02-04T09:35:52.178Z,3.37
2023-02-04T09:38:18.840Z,3.40
2023-02-04T09:40:50.669Z,3.24
2023-02-04T09:45:57.355Z,3.31
2023-02-04T09:48:24.976Z,3.47
2023-02-04T09:50:53.082Z,3.36
2023-02-04T09:53:23.354Z,3.32
2023-02-04T09:55:51.843Z,3.30
2023-02-04T09:58:20.995Z,3.30
2023-02-04T10:00:56.852Z,3.31
2023-02-04T10:03:23.636Z,3.33
2023-02-04T10:05:51.728Z,3.29
2023-02-04T10:08:21.186Z,3.20
2023-02-04T10:10:49.607Z,3.23
2023-02-04T10:13:19.729Z,3.41
2023-02-04T10:15:49.075Z,3.30
2023-02-04T10:18:32.188Z,3.22
2023-02-04T10:21:28.184Z,3.34
2023-02-04T10:23:57.335Z,3.93
2023-02-04T10:26:28.531Z,3.64
2023-02-04T10:29:00.649Z,3.81
2023-02-04T10:31:39.088Z,3.90
2023-02-04T10:34:20.770Z,3.76
2023-02-04T10:36:54.632Z,3.55
2023-02-04T10:39:30.051Z,3.40
2023-02-04T10:41:59.467Z,3.32
2023-02-04T10:44:31.804Z,3.06
2023-02-04T10:47:06.785Z,2.88
2023-02-04T10:49:34.865Z,2.59
2023-02-04T10:52:03.478Z,2.62
2023-02-04T10:54:37.953Z,2.61
2023-02-04T11:04:18.734Z,2.74
2023-02-04T11:06:45.511Z,2.42
2023-02-04T11:09:15.149Z,2.37
2023-02-04T11:11:50.551Z,2.62
2023-02-04T11:14:29.724Z,2.70
2023-02-04T11:17:01.695Z,2.89
2023-02-04T11:19:39.216Z,2.53
2023-02-04T11:22:19.975Z,2.49
2023-02-04T11:24:46.696Z,2.48
2023-02-04T11:27:26.858Z,2.58
2023-02-04T11:30:06.463Z,2.61
2023-02-04T11:32:38.864Z,2.57
2023-02-04T11:35:23.528Z,2.66
2023-02-04T11:37:50.693Z,2.67
2023-02-04T11:40:22.644Z,2.66
2023-02-04T11:42:49.742Z,3.24
2023-02-04T11:45:21.107Z,2.84
2023-02-04T11:47:48.156Z,2.88
2023-02-04T11:50:25.449Z,2.94
2023-02-04T11:52:55.080Z,2.62
2023-02-04T11:55:21.790Z,2.63
2023-02-04T11:57:52.879Z,2.78
2023-02-04T12:00:25.928Z,2.86
2023-02-04T12:02:59.424Z,2.83
2023-02-04T12:38:01.931Z,2.88
2023-02-04T12:40:28.711Z,2.75
2023-02-04T12:42:55.520Z,2.60
2023-02-04T12:45:22.189Z,2.55
2023-02-04T12:48:02.954Z,2.48
2023-02-04T12:50:30.253Z,2.48
2023-02-04T12:52:58.110Z,2.92
2023-02-04T12:55:26.983Z,2.89
2023-02-04T12:59:05.790Z,2.82
2023-02-04T13:01:33.734Z,2.81
2023-02-04T13:04:00.412Z,2.93
2023-02-04T13:06:27.017Z,2.94
2023-02-04T13:10:55.587Z,2.55
2023-02-04T13:13:22.794Z,2.44
2023-02-04T13:15:49.549Z,2.55
2023-02-04T13:18:17.527Z,2.76
2023-02-04T13:20:46.150Z,2.77
2023-02-04T13:23:13.394Z,2.73
2023-02-04T13:25:40.808Z,2.75
2023-02-04T13:28:07.624Z,2.69
2023-02-04T13:33:09.109Z,2.49
2023-02-04T13:35:35.883Z,2.43
2023-02-04T13:38:02.707Z,2.56
2023-02-04T13:40:29.416Z,2.30
2023-02-04T13:42:56.096Z,2.24
2023-02-04T13:45:22.956Z,2.15
2023-02-04T13:47:49.737Z,2.16
2023-02-04T13:50:17.189Z,2.22
2023-02-04T13:55:22.511Z,2.18
2023-02-04T13:57:49.213Z,2.30
2023-02-04T14:00:16.284Z,2.23
2023-02-04T14:02:43.079Z,2.14
2023-02-04T14:05:09.910Z,2.08
2023-02-04T14:10:18.310Z,2.17
2023-02-04T14:12:45.196Z,2.16
2023-02-04T14:15:11.904Z,2.21
2023-02-04T14:17:38.613Z,2.22
2023-02-04T14:20:05.834Z,2.08
2023-02-04T14:22:32.549Z,1.95
2023-02-04T14:24:59.223Z,1.88
2023-02-04T14:27:26.031Z,1.88
2023-02-04T14:29:52.980Z,1.81
2023-02-04T14:32:21.014Z,1.71
2023-02-04T14:34:47.703Z,1.71
2023-02-04T14:37:14.375Z,1.69
2023-02-04T14:39:41.098Z,1.68
2023-02-04T14:42:07.809Z,1.72
2023-02-04T14:44:34.528Z,1.92
2023-02-04T14:47:01.213Z,1.74
2023-02-04T14:52:06.898Z,1.77
2023-02-04T14:54:33.589Z,1.73
2023-02-04T14:57:00.500Z,1.64
2023-02-04T14:59:27.295Z,1.61
2023-02-04T15:01:53.979Z,1.55
2023-02-04T15:04:20.948Z,1.60
2023-02-04T15:06:47.897Z,1.57
2023-02-04T15:09:14.561Z,1.49
2023-02-04T15:11:41.190Z,1.41
2023-02-04T15:14:07.953Z,1.29
2023-02-04T15:19:09.616Z,1.28
2023-02-04T15:24:04.109Z,1.49
2023-02-04T15:26:30.899Z,1.42
2023-02-04T15:28:57.699Z,1.36
2023-02-04T15:31:25.543Z,1.29
2023-02-04T15:33:52.310Z,1.33
2023-02-04T15:36:19.146Z,1.44
2023-02-04T15:38:46.594Z,1.37
2023-02-04T15:41:13.351Z,1.29
2023-02-04T15:43:40.137Z,1.23
2023-02-04T15:46:06.996Z,1.23
2023-02-04T15:48:33.746Z,1.52
2023-02-04T15:51:00.429Z,1.32
2023-02-04T15:53:27.157Z,1.12
2023-02-04T15:55:53.826Z,1.23
2023-02-04T15:58:20.588Z,1.21
2023-02-04T16:00:47.231Z,1.16
2023-02-04T16:03:13.900Z,1.34
2023-02-04T16:05:40.674Z,1.13
2023-02-04T16:08:07.469Z,0.92
2023-02-04T16:10:34.298Z,1.03
2023-02-04T16:13:01.223Z,1.02
2023-02-04T16:15:28.000Z,0.94
2023-02-04T16:17:56.188Z,0.85
2023-02-04T16:20:23.381Z,0.80
2023-02-04T16:22:50.360Z,0.78
2023-02-04T16:25:17.250Z,0.68
2023-02-04T16:27:44.064Z,0.69
2023-02-04T16:30:12.375Z,0.70
2023-02-04T16:32:39.313Z,0.67
2023-02-04T16:35:06.904Z,0.94
2023-02-04T16:37:34.528Z,0.70
2023-02-04T16:40:01.197Z,0.66
2023-02-04T16:42:29.578Z,0.81
2023-02-04T16:44:56.376Z,0.58
2023-02-04T16:47:23.054Z,0.43
2023-02-04T16:49:50.615Z,0.46
2023-02-04T16:52:18.453Z,0.49
2023-02-04T16:54:45.153Z,0.40
2023-02-04T16:57:12.415Z,0.50
2023-02-04T16:59:39.115Z,0.43
2023-02-04T17:02:05.904Z,0.47
2023-02-04T17:04:32.845Z,0.43
2023-02-04T17:07:00.590Z,0.41
2023-02-04T17:09:27.893Z,0.32
2023-02-04T17:11:54.867Z,0.27
2023-02-04T17:14:23.935Z,0.25
2023-02-04T17:16:51.786Z,0.22
2023-02-04T17:19:19.100Z,0.19
2023-02-04T17:21:46.195Z,0.23
2023-02-04T17:24:13.232Z,0.31
2023-02-04T17:26:40.469Z,0.41
2023-02-04T17:29:09.666Z,0.36
2023-02-04T17:31:37.100Z,0.53
2023-02-04T17:34:04.359Z,0.47
2023-02-04T17:36:32.454Z,0.52
2023-02-04T17:38:59.618Z,0.46
2023-02-04T17:41:26.313Z,0.39
2023-02-04T17:43:53.242Z,0.56
2023-02-04T17:46:20.123Z,0.44
2023-02-04T17:48:46.826Z,0.53
2023-02-04T17:51:13.908Z,0.34
2023-02-04T17:53:41.264Z,0.29
2023-02-04T17:56:12.826Z,0.24
2023-02-04T17:58:40.396Z,0.24
2023-02-04T18:03:51.904Z,0.40
2023-02-04T18:06:20.561Z,0.38
2023-02-04T18:11:33.133Z,0.23
2023-02-04T18:14:05.559Z,0.23
2023-02-04T18:16:34.655Z,0.30
2023-02-04T18:19:20.126Z,0.24
2023-02-04T18:21:48.391Z,0.23
2023-02-04T18:24:30.197Z,0.26
2023-02-04T18:27:01.631Z,0.14
2023-02-04T18:29:31.417Z,0.39
2023-02-04T18:32:02.601Z,0.24
2023-02-04T18:34:37.376Z,0.16
2023-02-04T18:37:26.916Z,0.11
2023-02-04T18:40:16.456Z,0.02
2023-02-04T18:42:45.168Z,-0.03
2023-02-04T18:45:25.082Z,-0.10
2023-02-04T18:47:57.012Z,-0.14
2023-02-04T18:50:29.864Z,0.01
2023-02-04T18:53:20.021Z,-0.03
2023-02-04T18:56:34.811Z,-0.21
2023-02-04T18:59:01.615Z,-0.25
2023-02-04T19:01:28.371Z,-0.15
2023-02-04T19:04:03.558Z,-0.33
2023-02-04T19:06:50.030Z,-0.36
2023-02-04T19:09:26.732Z,-0.22
2023-02-04T19:12:13.504Z,-0.21
2023-02-04T19:14:44.621Z,-0.15
2023-02-04T19:17:14.361Z,-0.17
2023-02-04T19:19:47.700Z,-0.27
2023-02-04T19:22:24.626Z,-0.27
2023-02-04T19:24:57.801Z,-0.23
2023-02-04T19:27:36.270Z,-0.38
2023-02-04T19:30:28.615Z,-0.44
2023-02-04T19:32:57.569Z,-0.15
2023-02-04T19:38:23.348Z,0.03
2023-02-04T19:40:52.116Z,0.02
2023-02-04T19:43:33.586Z,-0.17
2023-02-04T19:46:00.386Z,-0.17
2023-02-04T19:48:34.787Z,-0.19
2023-02-04T19:51:21.224Z,-0.13
2023-02-04T19:53:54.489Z,-0.31
2023-02-04T19:56:39.985Z,-0.11
2023-02-04T19:59:36.067Z,-0.28
2023-02-04T20:02:17.921Z,-0.40
2023-02-04T20:04:48.330Z,-0.32
2023-02-04T20:07:26.105Z,-0.24
2023-02-04T20:10:21.910Z,-0.08
2023-02-04T20:12:52.414Z,-0.13
2023-02-04T20:15:21.546Z,-0.18
2023-02-04T20:17:49.496Z,-0.24
2023-02-04T20:20:18.868Z,-0.34
2023-02-04T20:22:57.189Z,-0.48
2023-02-04T20:28:42.044Z,-0.51
2023-02-04T20:34:01.424Z,-0.66
2023-02-04T20:36:38.367Z,-0.60
2023-02-04T20:39:19.995Z,-0.81
2023-02-04T20:41:47.252Z,-0.80
2023-02-04T20:45:51.242Z,-0.90
2023-02-04T20:48:18.227Z,-0.97
2023-02-04T20:50:49.378Z,-0.91
2023-02-04T20:53:23.306Z,-0.88
2023-02-04T20:56:03.875Z,-0.87
2023-02-04T20:58:33.702Z,-0.97
2023-02-04T21:01:00.415Z,-1.02
2023-02-04T21:03:30.109Z,-1.07
2023-02-04T21:05:59.437Z,-1.02
2023-02-04T21:08:35.573Z,-1.13
2023-02-04T21:11:03.128Z,-1.11
2023-02-04T21:13:30.172Z,-1.09
2023-02-04T21:15:57.368Z,-1.12
2023-02-04T21:18:24.777Z,-1.12
2023-02-04T21:20:51.755Z,-1.14
2023-02-04T21:23:19.137Z,-0.97
2023-02-04T21:28:24.496Z,-1.15
2023-02-04T21:30:51.378Z,-1.21
2023-02-04T21:33:18.162Z,-1.19
2023-02-04T21:35:44.895Z,-1.21
2023-02-04T21:38:11.837Z,-1.19
2023-02-04T21:40:38.542Z,-1.02
2023-02-04T21:43:06.596Z,-1.07
2023-02-04T21:45:34.454Z,-1.13
2023-02-04T21:49:59.587Z,-1.23
2023-02-04T21:52:26.331Z,-1.29
2023-02-04T21:54:52.973Z,-1.20
2023-02-04T21:57:19.686Z,-1.11
2023-02-04T21:59:48.374Z,-1.12
2023-02-04T22:02:15.057Z,-1.23
2023-02-04T22:04:41.772Z,-1.30
2023-02-04T22:07:08.466Z,-1.37
2023-02-04T22:09:35.110Z,-1.41
2023-02-04T22:12:02.546Z,-1.44
2023-02-04T22:14:29.208Z,-1.48
2023-02-04T22:16:55.893Z,-1.39
2023-02-04T22:19:22.836Z,-1.29
2023-02-04T22:21:49.569Z,-1.12
2023-02-04T22:24:16.227Z,-1.16
2023-02-04T22:26:42.936Z,-1.25
2023-02-04T22:29:09.617Z,-1.26
2023-02-04T22:31:36.367Z,-1.20
2023-02-04T22:34:05.594Z,-1.09
2023-02-04T22:37:43.401Z,-0.93
2023-02-04T22:40:11.863Z,-0.93
2023-02-04T22:42:38.583Z,-0.90
2023-02-04T22:45:05.796Z,-0.90
2023-02-04T22:45:10.488Z,-0.93
2023-02-04T22:47:48.646Z,-0.89
2023-02-04T22:50:15.434Z,-0.92
2023-02-04T22:52:43.861Z,-0.90
2023-02-04T22:55:10.912Z,-0.94
2023-02-04T22:57:37.595Z,-0.89
2023-02-04T23:02:46.882Z,-0.91
2023-02-04T23:05:13.571Z,-0.88
2023-02-04T23:07:40.255Z,-0.94
2023-02-04T23:10:07.634Z,-0.99
2023-02-04T23:12:34.349Z,-1.05
2023-02-04T23:15:01.121Z,-1.07
2023-02-04T23:17:27.834Z,-1.04
2023-02-04T23:19:54.543Z,-1.01
2023-02-04T23:22:21.223Z,-1.04
2023-02-04T23:27:28.610Z,-1.05
2023-02-04T23:29:55.329Z,-0.95
2023-02-04T23:32:23.504Z,-0.96
2023-02-04T23:34:50.174Z,-0.95
2023-02-04T23:39:23.363Z,-0.95
2023-02-04T23:41:50.512Z,-1.03
2023-02-04T23:44:17.331Z,-1.04
2023-02-04T23:46:44.240Z,-0.99
2023-02-04T23:49:10.947Z,-1.06
2023-02-04T23:51:37.737Z,-1.16
2023-02-04T23:54:04.978Z,-1.19
2023-02-04T23:56:31.710Z,-1.02
2023-02-04T23:58:58.427Z,-1.06
